createdAt,value
2023-03-24T00:01:28.627Z,2.90
2023-03-24T00:06:54.422Z,3.30
2023-03-24T00:12:19.046Z,3.40
2023-03-24T00:17:43.301Z,3.50
2023-03-24T00:23:08.605Z,3.50
2023-03-24T00:28:37.279Z,3.50
2023-03-24T00:34:03.166Z,3.70
2023-03-24T00:39:27.188Z,6.10
2023-03-24T00:44:54.213Z,2.10
2023-03-24T00:50:20.936Z,5.20
2023-03-24T00:55:48.512Z,3.40
2023-03-24T01:01:13.305Z,2.50
2023-03-24T01:06:38.208Z,2.50
2023-03-24T01:12:05.927Z,3.10
2023-03-24T01:17:30.023Z,3.20
2023-03-24T01:22:54.155Z,3.70
2023-03-24T01:28:24.796Z,4.10
2023-03-24T01:33:49.390Z,3.90
2023-03-24T01:39:13.101Z,2.10
2023-03-24T01:44:38.767Z,2.60
2023-03-24T01:50:05.545Z,4.90
2023-03-24T01:55:32.503Z,2.80
2023-03-24T02:00:58.463Z,3.50
2023-03-24T02:06:49.468Z,4.40
2023-03-24T02:12:14.468Z,3.40
2023-03-24T02:17:45.527Z,2.20
2023-03-24T02:23:35.009Z,3.80
2023-03-24T02:29:48.355Z,2.30
2023-03-24T02:35:36.148Z,2.50
2023-03-24T02:41:18.341Z,3.80
2023-03-24T02:46:50.163Z,3.20
2023-03-24T02:52:24.176Z,3.10
2023-03-24T02:58:01.032Z,3.40
2023-03-24T03:03:52.494Z,3.90
2023-03-24T03:09:21.847Z,4.30
2023-03-24T03:14:53.380Z,3.00
2023-03-24T03:20:23.526Z,4.90
2023-03-24T03:25:52.713Z,4.70
2023-03-24T03:31:24.095Z,3.20
2023-03-24T03:36:58.152Z,3.60
2023-03-24T03:42:23.881Z,4.20
2023-03-24T03:47:49.491Z,4.00
2023-03-24T03:53:17.760Z,3.40
2023-03-24T03:58:42.818Z,5.10
2023-03-24T04:04:30.259Z,6.20
2023-03-24T04:10:45.277Z,3.90
2023-03-24T04:16:23.432Z,5.20
2023-03-24T04:22:50.018Z,4.30
2023-03-24T04:28:16.044Z,3.80
2023-03-24T04:33:49.101Z,4.50
2023-03-24T04:39:18.530Z,5.90
2023-03-24T04:44:51.816Z,6.40
2023-03-24T04:50:46.070Z,5.20
2023-03-24T04:56:29.278Z,3.80
2023-03-24T05:02:07.787Z,5.70
2023-03-24T05:07:53.836Z,5.10
2023-03-24T05:13:19.377Z,4.60
2023-03-24T05:18:47.432Z,6.60
2023-03-24T05:24:12.952Z,5.90
2023-03-24T05:29:38.213Z,7.90
2023-03-24T05:35:04.407Z,11.40
2023-03-24T05:40:31.714Z,6.30
2023-03-24T05:46:08.176Z,5.50
2023-03-24T05:51:32.373Z,4.60
2023-03-24T05:57:02.627Z,5.50
2023-03-24T06:02:27.642Z,4.80
2023-03-24T06:07:58.934Z,6.30
2023-03-24T06:13:24.096Z,7.90
2023-03-24T06:18:52.874Z,4.00
2023-03-24T06:24:38.143Z,3.60
2023-03-24T06:30:07.226Z,6.10
2023-03-24T06:35:32.802Z,3.40
2023-03-24T06:41:03.152Z,4.50
2023-03-24T06:46:29.789Z,3.50
2023-03-24T06:51:54.652Z,6.20
2023-03-24T06:57:20.050Z,5.00
2023-03-24T07:03:04.269Z,4.10
2023-03-24T07:08:37.107Z,4.00
2023-03-24T07:14:09.906Z,3.90
2023-03-24T07:19:36.262Z,4.80
2023-03-24T07:25:20.434Z,4.60
2023-03-24T07:30:51.623Z,5.30
2023-03-24T07:36:19.427Z,13.20
2023-03-24T07:41:43.977Z,6.00
2023-03-24T07:47:29.150Z,3.80
2023-03-24T07:52:54.300Z,6.80
2023-03-24T07:58:19.051Z,4.60
2023-03-24T08:03:58.630Z,4.50
2023-03-24T08:09:44.108Z,3.00
2023-03-24T08:15:10.450Z,4.70
2023-03-24T08:25:59.014Z,3.10
2023-03-24T08:31:23.082Z,3.20
2023-03-24T08:36:47.788Z,3.00
2023-03-24T08:42:12.668Z,4.00
2023-03-24T08:47:37.709Z,2.70
2023-03-24T08:53:02.790Z,3.40
2023-03-24T08:58:27.363Z,3.30
2023-03-24T09:03:52.397Z,3.20
2023-03-24T09:09:16.836Z,2.90
2023-03-24T09:14:42.565Z,2.40
2023-03-24T09:20:12.166Z,2.20
2023-03-24T09:25:36.295Z,2.10
2023-03-24T09:31:03.197Z,3.20
2023-03-24T09:36:28.615Z,2.90
2023-03-24T09:41:56.478Z,2.60
2023-03-24T09:47:37.570Z,2.60
2023-03-24T09:53:23.166Z,4.10
2023-03-24T09:58:53.776Z,4.10
2023-03-24T10:04:21.656Z,3.80
2023-03-24T10:09:53.737Z,3.20
2023-03-24T10:15:37.108Z,3.50
2023-03-24T10:21:18.289Z,2.10
2023-03-24T10:26:55.724Z,2.20
2023-03-24T10:32:25.633Z,1.40
2023-03-24T10:37:52.728Z,2.20
2023-03-24T10:43:21.567Z,1.50
2023-03-24T10:48:48.637Z,3.10
2023-03-24T10:54:21.713Z,1.50
2023-03-24T10:59:58.270Z,3.00
2023-03-24T11:05:30.936Z,6.60
2023-03-24T11:10:56.709Z,3.00
2023-03-24T11:16:37.731Z,4.10
2023-03-24T11:22:06.109Z,5.70
2023-03-24T11:27:32.213Z,2.80
2023-03-24T11:32:58.745Z,3.90
2023-03-24T11:38:31.734Z,3.60
2023-03-24T11:44:23.073Z,3.50
2023-03-24T11:49:58.656Z,4.20
2023-03-24T11:55:42.734Z,4.20
2023-03-24T12:01:12.583Z,4.80
2023-03-24T12:06:57.317Z,4.30
2023-03-24T12:12:42.882Z,3.50
2023-03-24T12:18:16.268Z,3.90
2023-03-24T12:24:02.718Z,3.00
2023-03-24T12:29:54.870Z,3.40
2023-03-24T12:35:32.409Z,2.60
2023-03-24T12:41:25.300Z,5.20
2023-03-24T12:47:22.835Z,2.40
2023-03-24T12:58:43.362Z,2.40
2023-03-24T13:04:21.511Z,2.90
2023-03-24T13:09:46.842Z,3.00
2023-03-24T13:15:17.938Z,2.00
2023-03-24T13:20:49.987Z,2.10
2023-03-24T13:32:24.603Z,2.60
2023-03-24T13:37:57.843Z,2.90
2023-03-24T13:43:30.041Z,6.60
2023-03-24T13:49:00.624Z,2.80
2023-03-24T13:54:28.058Z,3.50
2023-03-24T14:00:19.297Z,4.00
2023-03-24T14:06:00.096Z,4.10
2023-03-24T14:11:38.758Z,2.70
2023-03-24T14:17:07.081Z,2.10
2023-03-24T14:22:36.646Z,3.90
2023-03-24T14:28:18.200Z,1.70
2023-03-24T14:33:54.699Z,2.40
2023-03-24T14:39:28.549Z,2.30
2023-03-24T14:44:53.985Z,3.30
2023-03-24T14:50:22.880Z,2.00
2023-03-24T14:55:49.229Z,2.00
2023-03-24T15:01:15.072Z,2.20
2023-03-24T15:06:47.359Z,1.60
2023-03-24T15:12:11.884Z,1.80
2023-03-24T15:17:36.164Z,2.40
2023-03-24T15:23:09.284Z,1.70
2023-03-24T15:28:34.101Z,2.50
2023-03-24T15:34:25.581Z,4.50
2023-03-24T15:39:57.045Z,5.60
2023-03-24T15:45:51.033Z,2.10
2023-03-24T15:51:17.400Z,1.40
2023-03-24T15:56:42.799Z,1.70
2023-03-24T16:02:19.132Z,1.20
2023-03-24T16:07:43.587Z,1.10
2023-03-24T16:13:16.223Z,1.20
2023-03-24T16:18:46.600Z,1.30
2023-03-24T16:24:11.191Z,2.90
2023-03-24T16:29:37.380Z,2.00
2023-03-24T16:35:03.233Z,2.00
2023-03-24T16:40:36.677Z,1.10
2023-03-24T16:46:01.895Z,1.50
2023-03-24T16:51:27.588Z,1.10
2023-03-24T16:56:52.023Z,2.20
2023-03-24T17:02:19.927Z,2.80
2023-03-24T17:07:44.843Z,3.10
2023-03-24T17:13:08.922Z,4.20
2023-03-24T17:18:33.612Z,4.30
2023-03-24T17:23:57.598Z,3.50
2023-03-24T17:29:23.151Z,6.50
2023-03-24T17:34:48.422Z,4.10
2023-03-24T17:40:15.839Z,8.80
2023-03-24T17:45:43.337Z,6.40
2023-03-24T17:51:07.797Z,8.90
2023-03-24T17:56:32.527Z,5.50
2023-03-24T18:01:56.322Z,3.40
2023-03-24T18:07:21.400Z,3.00
2023-03-24T18:12:46.604Z,5.00
2023-03-24T18:18:10.866Z,4.00
2023-03-24T18:23:37.228Z,5.30
2023-03-24T18:29:01.424Z,5.10
2023-03-24T18:34:26.964Z,6.50
2023-03-24T18:39:51.975Z,6.10
2023-03-24T18:45:19.919Z,3.60
2023-03-24T18:50:44.189Z,4.20
2023-03-24T18:56:09.127Z,6.60
2023-03-24T19:01:33.584Z,4.60
2023-03-24T19:06:57.849Z,4.70
2023-03-24T19:12:22.808Z,6.70
2023-03-24T19:17:47.992Z,9.50
2023-03-24T19:23:33.580Z,7.50
2023-03-24T19:29:04.108Z,9.70
2023-03-24T19:34:28.744Z,8.40
2023-03-24T19:39:54.512Z,9.20
2023-03-24T19:45:21.288Z,6.80
2023-03-24T19:50:47.014Z,8.00
2023-03-24T19:56:13.509Z,7.80
2023-03-24T20:01:38.577Z,8.00
2023-03-24T20:07:03.761Z,9.10
2023-03-24T20:12:28.244Z,6.90
2023-03-24T20:17:56.501Z,7.60
2023-03-24T20:23:22.717Z,5.70
2023-03-24T20:28:48.403Z,5.80
2023-03-24T20:34:12.434Z,7.30
2023-03-24T20:39:36.833Z,6.50
2023-03-24T20:45:01.370Z,9.10
2023-03-24T20:50:28.335Z,5.10
2023-03-24T20:56:07.080Z,7.20
2023-03-24T21:01:36.485Z,4.90
2023-03-24T21:07:01.520Z,4.80
2023-03-24T21:12:25.954Z,7.20
2023-03-24T21:17:51.000Z,4.80
2023-03-24T21:23:19.211Z,6.90
2023-03-24T21:28:44.900Z,6.40
2023-03-24T21:34:09.438Z,7.80
2023-03-24T21:39:34.015Z,14.50
2023-03-24T21:44:58.174Z,11.80
2023-03-24T21:50:26.081Z,9.10
2023-03-24T21:56:05.281Z,10.00
2023-03-24T22:01:31.387Z,5.10
2023-03-24T22:06:56.725Z,6.90
2023-03-24T22:12:21.103Z,7.60
2023-03-24T22:17:45.425Z,5.20
2023-03-24T22:23:09.918Z,7.00
2023-03-24T22:28:36.568Z,5.60
2023-03-24T22:34:01.572Z,4.30
2023-03-24T22:39:26.354Z,8.30
2023-03-24T22:44:50.516Z,4.20
2023-03-24T22:50:14.837Z,4.00
2023-03-24T22:55:39.628Z,5.20
2023-03-24T23:01:06.698Z,6.70
2023-03-24T23:06:31.401Z,4.50
2023-03-24T23:11:55.514Z,8.80
2023-03-24T23:17:19.852Z,4.10
2023-03-24T23:22:43.566Z,4.10
2023-03-24T23:28:07.864Z,6.00
2023-03-24T23:33:33.430Z,4.10
2023-03-24T23:38:57.944Z,4.50
2023-03-24T23:44:21.849Z,4.30
2023-03-24T23:49:45.909Z,4.50
2023-03-24T23:55:13.473Z,5.20
